Thunder radar more information blitzortung!


Radar de pluja more information rain snow radar


Visita la nostra xarxa de llocs de meteo:

Template documentation
and downloads

And another site



No particular awareness of the weather is required.    There are no Weather-warnings

Pagina Historial Weather Underground text

Diari Resum February 18, 2018 Unitats:  Imperial    Mètric   Tant
« Previous Dia
SegĂźent Dia »
Diari Setmana Mensual Anual Personalitzada
  Actual: Maxima: Minima: Media:
Temperatura: 4.8 °F TemperatureC °F 4.8 °F 7.3 °F
Punt de rosada: 0.0 °F DewpointC °F 0.0 °F 2.7 °F
Humitat: 71 % Humidity % 67 % 71 %
Wind Speed: 3.7 mph WindSpeedKMH mph 0.0 mph 3.3 mph
RĂ fegues de vent: 0.0 mph WindSpeedGustKMH mph - -
Vent:ENE - - SSW
Pression baro: 1021.9 in PressurehPa in 1020.9 in -
Precipitacions: 0.0 in      
Historical Graphs
 
 
Dades de taula per February 18, 2018
Temps Temperatura Punt de rosada Pression baro Vent Wind Speed RĂ fegues de vent Humitat Rainfall Rate (Hourly)
TemperatureC °F DewpointC °F PressurehPa in Calm     Humidity % HourlyPrecipMM in
00:03 10.6 °F 8.2 °F 1023.9 in WSW 3.7 mph 3.7 mph 85 % 0.0 in
00:08 10.6 °F 8.2 °F 1023.9 in West 4.7 mph 4.7 mph 85 % 0.0 in
00:13 10.6 °F 8.2 °F 1023.9 in West 3.7 mph 3.7 mph 85 % 0.0 in
00:18 10.6 °F 8.2 °F 1023.9 in WSW 5.3 mph 5.3 mph 85 % 0.0 in
00:23 10.6 °F 8.2 °F 1023.9 in West 4.2 mph 4.2 mph 85 % 0.0 in
00:28 10.6 °F 8.2 °F 1023.9 in WNW 4.2 mph 4.2 mph 85 % 0.0 in
00:33 10.5 °F 8.1 °F 1023.9 in SW 3.7 mph 3.7 mph 85 % 0.0 in
00:38 10.5 °F 8.1 °F 1023.9 in SW 3.7 mph 3.7 mph 85 % 0.0 in
00:43 10.4 °F 8.0 °F 1023.9 in WSW 3.7 mph 3.7 mph 85 % 0.0 in
00:48 10.3 °F 7.9 °F 1023.9 in WSW 4.2 mph 4.2 mph 85 % 0.0 in
00:53 10.2 °F 7.6 °F 1023.9 in WSW 3.7 mph 3.7 mph 84 % 0.0 in
00:58 10.2 °F 7.6 °F 1023.9 in WSW 3.7 mph 3.7 mph 84 % 0.0 in
01:03 10.1 °F 7.3 °F 1023.9 in West 3.7 mph 3.7 mph 83 % 0.0 in
01:08 9.9 °F 6.9 °F 1023.9 in WSW 5.6 mph 5.6 mph 82 % 0.0 in
01:13 10.0 °F 6.9 °F 1023.9 in WSW 3.7 mph 3.7 mph 81 % 0.0 in
01:18 10.0 °F 6.7 °F 1023.9 in WSW 5.6 mph 5.6 mph 80 % 0.0 in
01:23 9.9 °F 6.4 °F 1023.9 in West 3.7 mph 3.7 mph 79 % 0.0 in
01:28 9.8 °F 6.2 °F 1023.9 in SW 7.4 mph 7.4 mph 78 % 0.0 in
01:33 9.8 °F 5.9 °F 1023.9 in West 3.7 mph 3.7 mph 77 % 0.0 in
01:38 9.8 °F 5.8 °F 1023.9 in WSW 3.7 mph 3.7 mph 76 % 0.0 in
01:43 9.7 °F 5.3 °F 1022.9 in West 1.9 mph   74 % 0.0 in
01:48 9.6 °F 5.0 °F 1022.9 in WSW 3.5 mph 3.5 mph 73 % 0.0 in
01:53 9.5 °F 4.7 °F 1022.9 in WSW 3.7 mph 3.7 mph 72 % 0.0 in
01:58 9.4 °F 4.6 °F 1022.9 in WNW 3.7 mph 3.7 mph 72 % 0.0 in
02:03 9.3 °F 4.5 °F 1022.9 in WSW 3.7 mph 3.7 mph 72 % 0.0 in
02:08 9.2 °F 4.4 °F 1022.9 in WSW 3.7 mph 3.7 mph 72 % 0.0 in
02:13 9.1 °F 3.9 °F 1022.9 in West 1.9 mph   70 % 0.0 in
02:18 9.1 °F 3.9 °F 1022.9 in West 5.6 mph 5.6 mph 70 % 0.0 in
02:23 9.0 °F 3.8 °F 1022.9 in WSW 3.7 mph 3.7 mph 70 % 0.0 in
02:28 8.8 °F 3.4 °F 1022.9 in West 3.7 mph   69 % 0.0 in
02:33 8.7 °F 3.3 °F 1022.9 in WSW 3.7 mph   69 % 0.0 in
02:38 8.6 °F 3.2 °F 1022.9 in WNW 1.9 mph   69 % 0.0 in
02:43 8.5 °F 2.9 °F 1022.9 in WNW 1.9 mph   68 % 0.0 in
02:48 8.4 °F 2.6 °F 1022.9 in Calm     67 % 0.0 in
02:53 8.2 °F 2.7 °F 1022.9 in West 3.7 mph 3.9 mph 68 % 0.0 in
02:58 8.2 °F 2.7 °F 1022.9 in SW 1.9 mph 1.9 mph 68 % 0.0 in
03:03 8.1 °F 2.6 °F 1022.9 in NW 1.9 mph 1.9 mph 68 % 0.0 in
03:08 8.0 °F 2.4 °F 1022.9 in West 1.9 mph 1.9 mph 68 % 0.0 in
03:13 7.9 °F 2.3 °F 1022.9 in SW 3.7 mph 3.7 mph 68 % 0.0 in
03:18 7.7 °F 2.2 °F 1022.9 in West 1.9 mph 1.9 mph 68 % 0.0 in
03:23 7.6 °F 2.1 °F 1022.9 in WSW 3.9 mph 3.9 mph 68 % 0.0 in
03:28 7.5 °F 1.9 °F 1021.9 in WSW 4.2 mph 4.2 mph 68 % 0.0 in
03:33 7.4 °F 1.9 °F 1021.9 in WSW 3.7 mph 3.7 mph 68 % 0.0 in
03:38 7.3 °F 1.8 °F 1021.9 in West 3.7 mph 3.7 mph 68 % 0.0 in
03:43 7.2 °F 1.7 °F 1021.9 in WSW 3.7 mph 3.7 mph 68 % 0.0 in
03:48 7.1 °F 1.6 °F 1021.9 in West 2.6 mph   68 % 0.0 in
03:53 7.0 °F 1.5 °F 1021.9 in WSW 3.9 mph 3.9 mph 68 % 0.0 in
03:58 7.1 °F 1.6 °F 1021.9 in WSW 3.7 mph 3.7 mph 68 % 0.0 in
04:03 7.0 °F 1.5 °F 1021.9 in West 3.7 mph 3.7 mph 68 % 0.0 in
04:08 7.0 °F 1.5 °F 1021.9 in West 1.9 mph 1.9 mph 68 % 0.0 in
04:13 6.9 °F 1.4 °F 1021.9 in SW 3.7 mph 3.7 mph 68 % 0.0 in
04:18 6.7 °F 1.2 °F 1021.9 in Calm     68 % 0.0 in
04:23 6.6 °F 1.1 °F 1021.9 in East 3.7 mph 3.7 mph 68 % 0.0 in
04:28 6.7 °F 1.2 °F 1021.9 in ENE 2.6 mph 2.6 mph 68 % 0.0 in
04:33 6.4 °F 0.9 °F 1021.9 in NE 3.7 mph 3.7 mph 68 % 0.0 in
04:38 6.4 °F 0.9 °F 1021.9 in ENE 3.7 mph 3.7 mph 68 % 0.0 in
04:43 6.4 °F 0.9 °F 1021.9 in NE 1.9 mph 1.9 mph 68 % 0.0 in
04:48 6.3 °F 0.8 °F 1021.9 in Calm     68 % 0.0 in
04:53 6.1 °F 0.6 °F 1021.9 in Calm     68 % 0.0 in
04:58 6.1 °F 0.8 °F 1021.9 in WSW 1.9 mph 1.9 mph 69 % 0.0 in
05:03 6.0 °F 0.7 °F 1021.9 in Calm     69 % 0.0 in
05:08 6.0 °F 0.7 °F 1021.9 in NE 3.7 mph 3.7 mph 69 % 0.0 in
05:13 5.9 °F 0.7 °F 1021.9 in NE 3.7 mph 3.9 mph 69 % 0.0 in
05:18 5.9 °F 0.7 °F 1021.9 in North 3.7 mph 3.7 mph 69 % 0.0 in
05:23 5.8 °F 0.6 °F 1021.9 in NNW 3.7 mph 3.7 mph 69 % 0.0 in
05:28 5.8 °F 0.6 °F 1021.9 in WNW 4.7 mph 4.7 mph 69 % 0.0 in
05:33 5.7 °F 0.4 °F 1021.9 in West 1.9 mph 1.9 mph 69 % 0.0 in
05:38 5.6 °F 0.6 °F 1021.9 in WSW 3.7 mph 3.7 mph 70 % 0.0 in
05:43 5.5 °F 0.4 °F 1021.9 in West 3.7 mph 3.7 mph 70 % 0.0 in
05:48 5.5 °F 0.4 °F 1021.9 in ENE 3.7 mph 3.7 mph 70 % 0.0 in
05:53 5.6 °F 0.6 °F 1021.9 in NNE 3.9 mph 3.9 mph 70 % 0.0 in
05:58 5.6 °F 0.6 °F 1021.9 in East 3.7 mph 3.7 mph 70 % 0.0 in
06:03 5.6 °F 0.6 °F 1021.9 in NW 4.2 mph 4.2 mph 70 % 0.0 in
06:08 5.6 °F 0.6 °F 1021.9 in NNW 3.7 mph 3.7 mph 70 % 0.0 in
06:13 5.5 °F 0.4 °F 1021.9 in ENE 5.6 mph 5.6 mph 70 % 0.0 in
06:18 5.5 °F 0.4 °F 1021.9 in ENE 3.7 mph 3.7 mph 70 % 0.0 in
06:23 5.5 °F 0.4 °F 1021.9 in NNE 6.9 mph 6.9 mph 70 % 0.0 in
06:28 5.6 °F 0.6 °F 1021.9 in North 3.7 mph 3.7 mph 70 % 0.0 in
06:33 5.5 °F 0.4 °F 1021.9 in ENE 3.7 mph 3.7 mph 70 % 0.0 in
06:38 5.4 °F 0.4 °F 1021.9 in NNE 3.7 mph 3.9 mph 70 % 0.0 in
06:43 5.3 °F 0.3 °F 1021.9 in NNW 3.7 mph 3.7 mph 70 % 0.0 in
06:48 5.3 °F 0.3 °F 1021.9 in NNE 3.7 mph 3.7 mph 70 % 0.0 in
06:53 5.3 °F 0.3 °F 1021.9 in NNW 3.9 mph 4.2 mph 70 % 0.0 in
06:58 5.4 °F 0.4 °F 1020.9 in NNW 6.4 mph 6.4 mph 70 % 0.0 in
07:03 5.4 °F 0.4 °F 1020.9 in NE 4.2 mph 4.2 mph 70 % 0.0 in
07:08 5.3 °F 0.3 °F 1020.9 in NNE 3.7 mph 3.7 mph 70 % 0.0 in
07:13 5.2 °F 0.2 °F 1021.9 in NNE 1.9 mph 2.3 mph 70 % 0.0 in
07:18 5.1 °F 0.1 °F 1021.9 in NW 1.9 mph 1.9 mph 70 % 0.0 in
07:23 5.0 °F 0.0 °F 1021.9 in WNW 2.3 mph 2.3 mph 70 % 0.0 in
07:28 5.0 °F 0.2 °F 1020.9 in WNW 2.3 mph 2.3 mph 71 % 0.0 in
07:33 5.0 °F 0.2 °F 1020.9 in Calm     71 % 0.0 in
07:38 4.9 °F 0.1 °F 1020.9 in Calm     71 % 0.0 in
07:43 5.0 °F 0.2 °F 1021.9 in WNW 1.9 mph   71 % 0.0 in
07:48 4.9 °F 0.1 °F 1021.9 in NNE 1.9 mph   71 % 0.0 in
07:53 4.8 °F 0.0 °F 1021.9 in NNE 3.7 mph 3.7 mph 71 % 0.0 in
07:58 4.8 °F 0.0 °F 1021.9 in ENE 3.7 mph   71 % 0.0 in
Meteo Sesrovires
Elogis d' Weather Underground - 3 mb

Guio original per  Jim McMurry - jmcmurry@mwt.net Adaptat per a la plantilla per  Wim van der Kuil - Leuven-Template.eu

Trobareu la nostra informacio del temps tambe a:

Weather Underground

AWEKAS